Airfield :
LOGIN :

Register | Disclaimer

   EN    FR    IT 

 










Legend :    VFR   Marginal VFR   IFR   Intensive IFR   Very Intensive IFR
Visi :
Ceiling :
>= 8 km
>= 3000ft
5 to 8 km
1000 to 3000 ft
1500m to 5 km
500 to 1000 ft
800 to 1500m
200 to 500 ft
< 800m
< 200 ft
Symbols :   Thunderstorms  Fog  Heavy snow  Heavy precipitations  Wind > 20 kt
SIGMETs :     Misc.  Thunderstorms  Icing  Turbulence  Mountain Waves  Volcanic Ashes






- Airport Elevation : 26 ft
- IATA code : GLA


EGPF - Glasgow

CURRENT METAR :
  • 010720Z AUTO 24006KT 9999 BKN028 BKN039 06/05 Q0995

EXPIRED METARs :
  • 010650Z AUTO 24005KT 9999 SCT026 BKN035 07/05 Q0995
  • 010620Z AUTO 24007KT 9999 SCT024 BKN028 08/06 Q0995
  • 010550Z AUTO 24007KT 9999 SCT023/// SCT036/// //////TCU 08/06 Q0995
  • 010520Z AUTO 23007KT 9999 -RA FEW022/// SCT038/// //////TCU 08/06 Q0995
  • 010450Z AUTO 24006KT 9999 -RA FEW025/// //////CB 08/06 Q0995

TAF TAF EGPF
Valid from the 01 at 06:00 until the 02 at 06:00 UTC


010459Z 0106/0206 27005KT 9999 SCT030
PROB30
TEMPO 0106/0108 6000 RA BKN014
PROB30
TEMPO 0112/0118 6000 SHRA
PROB30
TEMPO 0121/0206 4000 BR
ATIS : +44 141 887 7449



MET'MAP, your aeronautical weather chart ! - Copyright ORBIFLY December 2007 - Disclaimer

ORBIFLY MET'MAP TEAM :

Programming & Development : Alexandra Zaïnal
Concept & original design : Baudouin d'Aumeries
Assistance for programming : Marc-Olivier Méhu
Technical & hardware support : Manuel Goepfert

Contact : metmap@orbifly.com




SOURCES & CREDITS :

   NOAA